sensor_id;sensor_type;location;lat;lon;timestamp;P1;durP1;ratioP1;P2;durP2;ratioP2
495;SDS011;39559;48.630;9.162;2023-08-21T00:00:28;10.50;;;8.10;;
495;SDS011;39559;48.630;9.162;2023-08-21T00:02:54;8.80;;;7.73;;
495;SDS011;39559;48.630;9.162;2023-08-21T00:05:19;8.70;;;7.80;;
495;SDS011;39559;48.630;9.162;2023-08-21T00:07:45;10.07;;;8.20;;
495;SDS011;39559;48.630;9.162;2023-08-21T00:10:11;9.70;;;7.50;;
495;SDS011;39559;48.630;9.162;2023-08-21T00:14:36;8.90;;;7.80;;
495;SDS011;39559;48.630;9.162;2023-08-21T00:17:02;8.83;;;7.93;;
495;SDS011;39559;48.630;9.162;2023-08-21T00:19:28;9.50;;;7.87;;
495;SDS011;39559;48.630;9.162;2023-08-21T00:21:54;9.00;;;8.10;;
495;SDS011;39559;48.630;9.162;2023-08-21T00:24:20;11.53;;;7.77;;
495;SDS011;39559;48.630;9.162;2023-08-21T00:26:45;8.87;;;7.77;;
495;SDS011;39559;48.630;9.162;2023-08-21T00:29:11;9.33;;;8.37;;
495;SDS011;39559;48.630;9.162;2023-08-21T00:31:36;8.43;;;7.63;;
495;SDS011;39559;48.630;9.162;2023-08-21T00:34:02;9.30;;;8.23;;
495;SDS011;39559;48.630;9.162;2023-08-21T00:38:30;8.20;;;7.40;;
495;SDS011;39559;48.630;9.162;2023-08-21T00:40:55;8.03;;;7.23;;
495;SDS011;39559;48.630;9.162;2023-08-21T00:43:22;9.63;;;7.03;;
495;SDS011;39559;48.630;9.162;2023-08-21T00:45:48;11.53;;;7.70;;
495;SDS011;39559;48.630;9.162;2023-08-21T00:48:15;10.50;;;7.80;;
495;SDS011;39559;48.630;9.162;2023-08-21T00:50:41;9.53;;;8.33;;
495;SDS011;39559;48.630;9.162;2023-08-21T00:53:08;8.57;;;7.67;;
495;SDS011;39559;48.630;9.162;2023-08-21T00:55:36;8.37;;;7.50;;
495;SDS011;39559;48.630;9.162;2023-08-21T00:58:03;9.77;;;8.10;;
495;SDS011;39559;48.630;9.162;2023-08-21T01:02:24;8.30;;;7.30;;
495;SDS011;39559;48.630;9.162;2023-08-21T01:04:49;8.17;;;7.37;;
495;SDS011;39559;48.630;9.162;2023-08-21T01:07:15;10.77;;;7.60;;
495;SDS011;39559;48.630;9.162;2023-08-21T01:09:50;10.13;;;8.30;;
495;SDS011;39559;48.630;9.162;2023-08-21T01:12:25;10.13;;;7.80;;
495;SDS011;39559;48.630;9.162;2023-08-21T01:14:59;13.00;;;8.43;;
495;SDS011;39559;48.630;9.162;2023-08-21T01:17:29;9.13;;;7.87;;
495;SDS011;39559;48.630;9.162;2023-08-21T01:19:55;10.33;;;8.37;;
495;SDS011;39559;48.630;9.162;2023-08-21T01:22:26;8.93;;;7.97;;
495;SDS011;39559;48.630;9.162;2023-08-21T01:26:21;8.33;;;7.47;;
495;SDS011;39559;48.630;9.162;2023-08-21T01:28:47;8.80;;;7.40;;
495;SDS011;39559;48.630;9.162;2023-08-21T01:31:21;9.27;;;8.03;;
495;SDS011;39559;48.630;9.162;2023-08-21T01:33:53;8.53;;;7.80;;
495;SDS011;39559;48.630;9.162;2023-08-21T01:36:22;9.87;;;8.07;;
495;SDS011;39559;48.630;9.162;2023-08-21T01:38:48;11.03;;;8.60;;
495;SDS011;39559;48.630;9.162;2023-08-21T01:41:14;8.80;;;7.93;;
495;SDS011;39559;48.630;9.162;2023-08-21T01:43:39;8.47;;;7.67;;
495;SDS011;39559;48.630;9.162;2023-08-21T01:46:05;9.40;;;8.40;;
495;SDS011;39559;48.630;9.162;2023-08-21T01:50:12;8.20;;;7.40;;
495;SDS011;39559;48.630;9.162;2023-08-21T01:52:38;13.33;;;8.50;;
495;SDS011;39559;48.630;9.162;2023-08-21T01:55:04;12.53;;;8.77;;
495;SDS011;39559;48.630;9.162;2023-08-21T01:57:33;15.23;;;7.63;;
495;SDS011;39559;48.630;9.162;2023-08-21T01:59:59;10.40;;;8.33;;
495;SDS011;39559;48.630;9.162;2023-08-21T02:02:24;8.67;;;6.90;;
495;SDS011;39559;48.630;9.162;2023-08-21T02:04:50;8.40;;;7.57;;
495;SDS011;39559;48.630;9.162;2023-08-21T02:07:16;10.20;;;7.50;;
495;SDS011;39559;48.630;9.162;2023-08-21T02:09:41;10.37;;;8.40;;
495;SDS011;39559;48.630;9.162;2023-08-21T02:14:06;9.10;;;8.07;;
495;SDS011;39559;48.630;9.162;2023-08-21T02:16:32;8.17;;;7.27;;
495;SDS011;39559;48.630;9.162;2023-08-21T02:18:58;13.70;;;8.00;;
495;SDS011;39559;48.630;9.162;2023-08-21T02:21:23;10.10;;;8.57;;
495;SDS011;39559;48.630;9.162;2023-08-21T02:23:49;7.80;;;7.00;;
495;SDS011;39559;48.630;9.162;2023-08-21T02:26:14;10.17;;;7.40;;
495;SDS011;39559;48.630;9.162;2023-08-21T02:28:48;10.20;;;8.07;;
495;SDS011;39559;48.630;9.162;2023-08-21T02:31:14;8.47;;;7.63;;
495;SDS011;39559;48.630;9.162;2023-08-21T02:33:40;9.80;;;7.80;;
495;SDS011;39559;48.630;9.162;2023-08-21T02:38:00;9.33;;;7.37;;
495;SDS011;39559;48.630;9.162;2023-08-21T02:40:26;10.60;;;7.30;;
495;SDS011;39559;48.630;9.162;2023-08-21T02:42:51;11.70;;;7.63;;
495;SDS011;39559;48.630;9.162;2023-08-21T02:45:17;7.73;;;6.97;;
495;SDS011;39559;48.630;9.162;2023-08-21T02:47:44;8.37;;;7.50;;
495;SDS011;39559;48.630;9.162;2023-08-21T02:50:10;10.00;;;7.00;;
495;SDS011;39559;48.630;9.162;2023-08-21T02:52:36;8.80;;;7.50;;
495;SDS011;39559;48.630;9.162;2023-08-21T02:55:02;10.63;;;7.70;;
495;SDS011;39559;48.630;9.162;2023-08-21T02:57:31;11.87;;;7.37;;
495;SDS011;39559;48.630;9.162;2023-08-21T03:01:56;15.00;;;7.50;;
495;SDS011;39559;48.630;9.162;2023-08-21T03:04:23;14.37;;;7.30;;
495;SDS011;39559;48.630;9.162;2023-08-21T03:06:50;9.27;;;7.83;;
495;SDS011;39559;48.630;9.162;2023-08-21T03:09:17;8.67;;;7.87;;
495;SDS011;39559;48.630;9.162;2023-08-21T03:11:44;8.10;;;7.33;;
495;SDS011;39559;48.630;9.162;2023-08-21T03:14:10;12.73;;;8.90;;
495;SDS011;39559;48.630;9.162;2023-08-21T03:16:37;12.47;;;8.33;;
495;SDS011;39559;48.630;9.162;2023-08-21T03:19:02;9.23;;;7.37;;
495;SDS011;39559;48.630;9.162;2023-08-21T03:21:28;10.53;;;8.13;;
495;SDS011;39559;48.630;9.162;2023-08-21T03:25:52;11.73;;;7.73;;
495;SDS011;39559;48.630;9.162;2023-08-21T03:28:18;9.20;;;8.27;;
495;SDS011;39559;48.630;9.162;2023-08-21T03:30:43;10.87;;;6.83;;
495;SDS011;39559;48.630;9.162;2023-08-21T03:33:09;11.07;;;9.13;;
495;SDS011;39559;48.630;9.162;2023-08-21T03:35:34;7.97;;;7.03;;
495;SDS011;39559;48.630;9.162;2023-08-21T03:38:00;8.57;;;7.73;;
495;SDS011;39559;48.630;9.162;2023-08-21T03:40:25;9.20;;;8.10;;
495;SDS011;39559;48.630;9.162;2023-08-21T03:42:51;10.30;;;8.47;;
495;SDS011;39559;48.630;9.162;2023-08-21T03:45:16;11.60;;;8.73;;
495;SDS011;39559;48.630;9.162;2023-08-21T03:49:43;9.03;;;8.13;;
495;SDS011;39559;48.630;9.162;2023-08-21T03:52:09;8.60;;;7.70;;
495;SDS011;39559;48.630;9.162;2023-08-21T03:54:35;8.47;;;7.67;;
495;SDS011;39559;48.630;9.162;2023-08-21T03:57:00;11.20;;;8.33;;
495;SDS011;39559;48.630;9.162;2023-08-21T03:59:26;10.53;;;8.80;;
495;SDS011;39559;48.630;9.162;2023-08-21T04:01:54;11.37;;;8.37;;
495;SDS011;39559;48.630;9.162;2023-08-21T04:04:19;8.20;;;7.40;;
495;SDS011;39559;48.630;9.162;2023-08-21T04:06:45;11.03;;;8.17;;
495;SDS011;39559;48.630;9.162;2023-08-21T04:09:10;11.27;;;8.27;;
495;SDS011;39559;48.630;9.162;2023-08-21T04:13:39;9.43;;;7.73;;
495;SDS011;39559;48.630;9.162;2023-08-21T04:16:04;8.97;;;8.07;;
495;SDS011;39559;48.630;9.162;2023-08-21T04:18:30;11.67;;;8.10;;
495;SDS011;39559;48.630;9.162;2023-08-21T04:20:55;9.03;;;7.87;;
495;SDS011;39559;48.630;9.162;2023-08-21T04:23:21;8.90;;;7.10;;
495;SDS011;39559;48.630;9.162;2023-08-21T04:25:46;13.30;;;6.83;;
495;SDS011;39559;48.630;9.162;2023-08-21T04:28:12;8.83;;;7.90;;
495;SDS011;39559;48.630;9.162;2023-08-21T04:30:39;7.93;;;6.90;;
495;SDS011;39559;48.630;9.162;2023-08-21T04:33:06;9.33;;;8.30;;
495;SDS011;39559;48.630;9.162;2023-08-21T04:37:33;8.70;;;6.67;;
495;SDS011;39559;48.630;9.162;2023-08-21T04:39:58;8.47;;;7.63;;
495;SDS011;39559;48.630;9.162;2023-08-21T04:42:24;14.07;;;8.20;;
495;SDS011;39559;48.630;9.162;2023-08-21T04:44:49;8.60;;;7.63;;
495;SDS011;39559;48.630;9.162;2023-08-21T04:47:18;10.87;;;8.87;;
495;SDS011;39559;48.630;9.162;2023-08-21T04:49:51;10.03;;;8.60;;
495;SDS011;39559;48.630;9.162;2023-08-21T04:52:18;9.20;;;8.17;;
495;SDS011;39559;48.630;9.162;2023-08-21T04:54:49;9.90;;;8.33;;
495;SDS011;39559;48.630;9.162;2023-08-21T04:57:15;11.30;;;8.73;;
495;SDS011;39559;48.630;9.162;2023-08-21T05:01:27;10.30;;;8.03;;
495;SDS011;39559;48.630;9.162;2023-08-21T05:03:53;9.57;;;8.23;;
495;SDS011;39559;48.630;9.162;2023-08-21T05:06:19;7.93;;;7.13;;
495;SDS011;39559;48.630;9.162;2023-08-21T05:08:45;8.60;;;7.70;;
495;SDS011;39559;48.630;9.162;2023-08-21T05:11:11;9.60;;;7.77;;
495;SDS011;39559;48.630;9.162;2023-08-21T05:13:36;8.07;;;7.17;;
495;SDS011;39559;48.630;9.162;2023-08-21T05:16:02;10.90;;;8.60;;
495;SDS011;39559;48.630;9.162;2023-08-21T05:18:27;9.23;;;7.87;;
495;SDS011;39559;48.630;9.162;2023-08-21T05:20:54;9.07;;;8.17;;
495;SDS011;39559;48.630;9.162;2023-08-21T05:25:22;9.93;;;8.10;;
495;SDS011;39559;48.630;9.162;2023-08-21T05:27:48;9.23;;;8.20;;
495;SDS011;39559;48.630;9.162;2023-08-21T05:30:13;8.70;;;7.80;;
495;SDS011;39559;48.630;9.162;2023-08-21T05:32:40;10.70;;;7.30;;
495;SDS011;39559;48.630;9.162;2023-08-21T05:35:06;10.43;;;8.10;;
495;SDS011;39559;48.630;9.162;2023-08-21T05:37:33;10.17;;;8.40;;
495;SDS011;39559;48.630;9.162;2023-08-21T05:39:59;13.30;;;8.90;;
495;SDS011;39559;48.630;9.162;2023-08-21T05:42:24;17.03;;;9.40;;
495;SDS011;39559;48.630;9.162;2023-08-21T05:44:50;13.13;;;9.90;;
495;SDS011;39559;48.630;9.162;2023-08-21T05:49:17;12.03;;;8.77;;
495;SDS011;39559;48.630;9.162;2023-08-21T05:51:42;10.33;;;8.97;;
495;SDS011;39559;48.630;9.162;2023-08-21T05:54:08;9.90;;;8.90;;
495;SDS011;39559;48.630;9.162;2023-08-21T05:56:33;15.80;;;10.27;;
495;SDS011;39559;48.630;9.162;2023-08-21T05:58:59;9.50;;;8.50;;
495;SDS011;39559;48.630;9.162;2023-08-21T06:01:24;9.60;;;8.70;;
495;SDS011;39559;48.630;9.162;2023-08-21T06:03:50;10.83;;;8.97;;
495;SDS011;39559;48.630;9.162;2023-08-21T06:06:15;10.40;;;9.30;;
495;SDS011;39559;48.630;9.162;2023-08-21T06:08:41;15.30;;;9.53;;
495;SDS011;39559;48.630;9.162;2023-08-21T06:13:12;11.53;;;9.33;;
495;SDS011;39559;48.630;9.162;2023-08-21T06:15:37;11.97;;;10.03;;
495;SDS011;39559;48.630;9.162;2023-08-21T06:18:03;9.27;;;7.90;;
495;SDS011;39559;48.630;9.162;2023-08-21T06:20:29;11.50;;;9.03;;
495;SDS011;39559;48.630;9.162;2023-08-21T06:22:55;15.00;;;9.57;;
495;SDS011;39559;48.630;9.162;2023-08-21T06:25:20;11.50;;;9.17;;
495;SDS011;39559;48.630;9.162;2023-08-21T06:27:46;11.50;;;10.10;;
495;SDS011;39559;48.630;9.162;2023-08-21T06:30:12;10.00;;;9.07;;
495;SDS011;39559;48.630;9.162;2023-08-21T06:32:38;11.00;;;9.03;;
495;SDS011;39559;48.630;9.162;2023-08-21T06:37:07;9.33;;;8.27;;
495;SDS011;39559;48.630;9.162;2023-08-21T06:39:33;12.60;;;9.13;;
495;SDS011;39559;48.630;9.162;2023-08-21T06:41:59;10.70;;;8.43;;
495;SDS011;39559;48.630;9.162;2023-08-21T06:44:25;10.20;;;8.47;;
495;SDS011;39559;48.630;9.162;2023-08-21T06:46:51;10.03;;;8.40;;
495;SDS011;39559;48.630;9.162;2023-08-21T06:49:17;15.30;;;9.10;;
495;SDS011;39559;48.630;9.162;2023-08-21T06:51:42;9.47;;;8.47;;
495;SDS011;39559;48.630;9.162;2023-08-21T06:54:08;9.10;;;8.23;;
495;SDS011;39559;48.630;9.162;2023-08-21T06:56:34;9.50;;;8.10;;
495;SDS011;39559;48.630;9.162;2023-08-21T07:01:02;10.13;;;8.13;;
495;SDS011;39559;48.630;9.162;2023-08-21T07:03:27;10.60;;;8.50;;
495;SDS011;39559;48.630;9.162;2023-08-21T07:05:54;9.63;;;7.23;;
495;SDS011;39559;48.630;9.162;2023-08-21T07:08:23;9.00;;;7.03;;
495;SDS011;39559;48.630;9.162;2023-08-21T07:10:50;9.27;;;7.87;;
495;SDS011;39559;48.630;9.162;2023-08-21T07:13:15;8.30;;;7.50;;
495;SDS011;39559;48.630;9.162;2023-08-21T07:15:41;8.37;;;7.33;;
495;SDS011;39559;48.630;9.162;2023-08-21T07:18:07;7.63;;;6.20;;
495;SDS011;39559;48.630;9.162;2023-08-21T07:20:33;11.07;;;7.93;;
495;SDS011;39559;48.630;9.162;2023-08-21T07:24:57;7.40;;;6.73;;
495;SDS011;39559;48.630;9.162;2023-08-21T07:27:22;8.50;;;6.77;;
495;SDS011;39559;48.630;9.162;2023-08-21T07:29:48;6.40;;;5.80;;
495;SDS011;39559;48.630;9.162;2023-08-21T07:32:13;8.90;;;6.90;;
495;SDS011;39559;48.630;9.162;2023-08-21T07:34:39;7.27;;;6.30;;
495;SDS011;39559;48.630;9.162;2023-08-21T07:37:04;8.53;;;7.63;;
495;SDS011;39559;48.630;9.162;2023-08-21T07:39:35;8.70;;;7.00;;
495;SDS011;39559;48.630;9.162;2023-08-21T07:42:00;8.23;;;6.80;;
495;SDS011;39559;48.630;9.162;2023-08-21T07:44:26;8.23;;;6.80;;
495;SDS011;39559;48.630;9.162;2023-08-21T07:48:52;7.53;;;6.50;;
495;SDS011;39559;48.630;9.162;2023-08-21T07:51:18;7.10;;;6.17;;
495;SDS011;39559;48.630;9.162;2023-08-21T07:53:44;6.43;;;5.83;;
495;SDS011;39559;48.630;9.162;2023-08-21T07:56:10;6.93;;;6.23;;
495;SDS011;39559;48.630;9.162;2023-08-21T07:58:36;7.90;;;6.10;;
495;SDS011;39559;48.630;9.162;2023-08-21T08:01:02;7.23;;;6.53;;
495;SDS011;39559;48.630;9.162;2023-08-21T08:03:30;7.20;;;6.17;;
495;SDS011;39559;48.630;9.162;2023-08-21T08:05:56;9.90;;;6.43;;
495;SDS011;39559;48.630;9.162;2023-08-21T08:08:22;7.27;;;6.60;;
495;SDS011;39559;48.630;9.162;2023-08-21T08:12:47;7.37;;;6.67;;
495;SDS011;39559;48.630;9.162;2023-08-21T08:15:12;6.90;;;6.20;;
495;SDS011;39559;48.630;9.162;2023-08-21T08:17:38;7.57;;;6.50;;
495;SDS011;39559;48.630;9.162;2023-08-21T08:20:04;10.63;;;6.83;;
495;SDS011;39559;48.630;9.162;2023-08-21T08:22:31;8.40;;;6.97;;
495;SDS011;39559;48.630;9.162;2023-08-21T08:24:57;8.03;;;6.40;;
495;SDS011;39559;48.630;9.162;2023-08-21T08:27:22;7.00;;;6.30;;
495;SDS011;39559;48.630;9.162;2023-08-21T08:29:49;6.90;;;5.83;;
495;SDS011;39559;48.630;9.162;2023-08-21T08:32:14;7.83;;;7.13;;
495;SDS011;39559;48.630;9.162;2023-08-21T08:36:41;9.40;;;6.47;;
495;SDS011;39559;48.630;9.162;2023-08-21T08:39:07;10.23;;;6.70;;
495;SDS011;39559;48.630;9.162;2023-08-21T08:41:41;9.10;;;6.90;;
495;SDS011;39559;48.630;9.162;2023-08-21T08:44:13;7.67;;;6.73;;
495;SDS011;39559;48.630;9.162;2023-08-21T08:46:43;10.63;;;7.07;;
495;SDS011;39559;48.630;9.162;2023-08-21T08:49:09;8.33;;;7.60;;
495;SDS011;39559;48.630;9.162;2023-08-21T08:51:36;7.90;;;6.87;;
495;SDS011;39559;48.630;9.162;2023-08-21T08:54:04;13.60;;;7.57;;
495;SDS011;39559;48.630;9.162;2023-08-21T08:56:32;7.43;;;6.73;;
495;SDS011;39559;48.630;9.162;2023-08-21T09:00:36;7.07;;;6.40;;
495;SDS011;39559;48.630;9.162;2023-08-21T09:03:02;7.80;;;6.37;;
495;SDS011;39559;48.630;9.162;2023-08-21T09:05:29;7.40;;;5.60;;
495;SDS011;39559;48.630;9.162;2023-08-21T09:10:42;7.87;;;7.07;;
495;SDS011;39559;48.630;9.162;2023-08-21T09:13:09;7.90;;;7.10;;
495;SDS011;39559;48.630;9.162;2023-08-21T09:15:37;6.67;;;6.00;;
495;SDS011;39559;48.630;9.162;2023-08-21T09:18:03;7.70;;;6.93;;
495;SDS011;39559;48.630;9.162;2023-08-21T09:20:34;14.40;;;7.60;;
495;SDS011;39559;48.630;9.162;2023-08-21T09:24:31;7.50;;;6.50;;
495;SDS011;39559;48.630;9.162;2023-08-21T09:26:56;7.83;;;7.03;;
495;SDS011;39559;48.630;9.162;2023-08-21T09:29:25;7.20;;;6.53;;
495;SDS011;39559;48.630;9.162;2023-08-21T09:31:50;7.83;;;7.00;;
495;SDS011;39559;48.630;9.162;2023-08-21T09:34:16;7.23;;;6.20;;
495;SDS011;39559;48.630;9.162;2023-08-21T09:36:42;7.23;;;6.43;;
495;SDS011;39559;48.630;9.162;2023-08-21T09:39:11;8.73;;;6.40;;
495;SDS011;39559;48.630;9.162;2023-08-21T09:41:42;10.23;;;7.20;;
495;SDS011;39559;48.630;9.162;2023-08-21T09:44:24;6.33;;;5.63;;
495;SDS011;39559;48.630;9.162;2023-08-21T09:48:26;8.93;;;6.70;;
495;SDS011;39559;48.630;9.162;2023-08-21T09:50:52;7.80;;;5.80;;
495;SDS011;39559;48.630;9.162;2023-08-21T09:53:21;7.23;;;6.47;;
495;SDS011;39559;48.630;9.162;2023-08-21T09:55:49;5.70;;;5.20;;
495;SDS011;39559;48.630;9.162;2023-08-21T09:58:19;5.73;;;5.20;;
495;SDS011;39559;48.630;9.162;2023-08-21T10:00:49;7.93;;;5.83;;
495;SDS011;39559;48.630;9.162;2023-08-21T10:03:20;6.60;;;6.00;;
495;SDS011;39559;48.630;9.162;2023-08-21T10:05:46;9.63;;;5.33;;
495;SDS011;39559;48.630;9.162;2023-08-21T10:08:13;5.80;;;5.30;;
495;SDS011;39559;48.630;9.162;2023-08-21T10:12:19;5.23;;;4.73;;
495;SDS011;39559;48.630;9.162;2023-08-21T10:14:47;7.30;;;5.60;;
495;SDS011;39559;48.630;9.162;2023-08-21T10:17:13;5.30;;;4.80;;
495;SDS011;39559;48.630;9.162;2023-08-21T10:19:39;6.23;;;5.40;;
495;SDS011;39559;48.630;9.162;2023-08-21T10:22:04;5.53;;;5.00;;
495;SDS011;39559;48.630;9.162;2023-08-21T10:24:34;6.50;;;5.43;;
495;SDS011;39559;48.630;9.162;2023-08-21T10:27:02;7.13;;;6.43;;
495;SDS011;39559;48.630;9.162;2023-08-21T10:29:28;5.23;;;4.53;;
495;SDS011;39559;48.630;9.162;2023-08-21T10:31:59;6.50;;;5.90;;
495;SDS011;39559;48.630;9.162;2023-08-21T10:36:14;6.90;;;6.03;;
495;SDS011;39559;48.630;9.162;2023-08-21T10:38:58;6.57;;;5.50;;
495;SDS011;39559;48.630;9.162;2023-08-21T10:41:27;5.37;;;4.57;;
495;SDS011;39559;48.630;9.162;2023-08-21T10:43:53;5.67;;;4.77;;
495;SDS011;39559;48.630;9.162;2023-08-21T10:46:19;6.57;;;5.83;;
495;SDS011;39559;48.630;9.162;2023-08-21T10:48:44;6.03;;;5.43;;
495;SDS011;39559;48.630;9.162;2023-08-21T10:51:10;6.53;;;5.93;;
495;SDS011;39559;48.630;9.162;2023-08-21T10:53:39;7.30;;;5.70;;
495;SDS011;39559;48.630;9.162;2023-08-21T10:56:06;7.03;;;6.33;;
495;SDS011;39559;48.630;9.162;2023-08-21T11:00:09;6.63;;;5.43;;
495;SDS011;39559;48.630;9.162;2023-08-21T11:02:45;7.17;;;6.00;;
495;SDS011;39559;48.630;9.162;2023-08-21T11:05:12;9.30;;;5.63;;
495;SDS011;39559;48.630;9.162;2023-08-21T11:07:40;8.00;;;6.27;;
495;SDS011;39559;48.630;9.162;2023-08-21T11:10:14;7.20;;;6.50;;
495;SDS011;39559;48.630;9.162;2023-08-21T11:12:48;8.50;;;5.97;;
495;SDS011;39559;48.630;9.162;2023-08-21T11:15:21;6.77;;;6.17;;
495;SDS011;39559;48.630;9.162;2023-08-21T11:20:20;6.07;;;5.50;;
495;SDS011;39559;48.630;9.162;2023-08-21T11:24:02;6.57;;;5.60;;
495;SDS011;39559;48.630;9.162;2023-08-21T11:26:28;6.27;;;5.70;;
495;SDS011;39559;48.630;9.162;2023-08-21T11:28:54;7.50;;;5.90;;
495;SDS011;39559;48.630;9.162;2023-08-21T11:31:21;8.03;;;6.37;;
495;SDS011;39559;48.630;9.162;2023-08-21T11:33:50;8.33;;;6.70;;
495;SDS011;39559;48.630;9.162;2023-08-21T11:36:16;6.67;;;5.97;;
495;SDS011;39559;48.630;9.162;2023-08-21T11:38:43;6.73;;;5.73;;
495;SDS011;39559;48.630;9.162;2023-08-21T11:41:24;7.20;;;6.00;;
495;SDS011;39559;48.630;9.162;2023-08-21T11:43:50;8.07;;;6.67;;
495;SDS011;39559;48.630;9.162;2023-08-21T11:47:59;9.13;;;7.10;;
495;SDS011;39559;48.630;9.162;2023-08-21T11:50:25;7.47;;;6.70;;
495;SDS011;39559;48.630;9.162;2023-08-21T11:52:52;7.50;;;6.70;;
495;SDS011;39559;48.630;9.162;2023-08-21T11:55:19;7.20;;;6.50;;
495;SDS011;39559;48.630;9.162;2023-08-21T11:57:48;9.63;;;6.60;;
495;SDS011;39559;48.630;9.162;2023-08-21T12:00:15;7.50;;;6.63;;
495;SDS011;39559;48.630;9.162;2023-08-21T12:02:54;10.03;;;6.07;;
495;SDS011;39559;48.630;9.162;2023-08-21T12:05:24;9.60;;;6.53;;
495;SDS011;39559;48.630;9.162;2023-08-21T12:07:51;7.63;;;6.93;;
495;SDS011;39559;48.630;9.162;2023-08-21T12:11:49;10.30;;;7.33;;
495;SDS011;39559;48.630;9.162;2023-08-21T12:14:15;9.13;;;6.33;;
495;SDS011;39559;48.630;9.162;2023-08-21T12:16:42;7.80;;;7.10;;
495;SDS011;39559;48.630;9.162;2023-08-21T12:19:07;8.13;;;7.33;;
495;SDS011;39559;48.630;9.162;2023-08-21T12:21:34;7.87;;;7.07;;
495;SDS011;39559;48.630;9.162;2023-08-21T12:24:03;9.33;;;7.27;;
495;SDS011;39559;48.630;9.162;2023-08-21T12:26:30;11.60;;;7.00;;
495;SDS011;39559;48.630;9.162;2023-08-21T12:28:56;6.73;;;6.10;;
495;SDS011;39559;48.630;9.162;2023-08-21T12:31:21;7.50;;;6.80;;
495;SDS011;39559;48.630;9.162;2023-08-21T12:35:45;6.90;;;6.27;;
495;SDS011;39559;48.630;9.162;2023-08-21T12:38:11;6.63;;;6.00;;
495;SDS011;39559;48.630;9.162;2023-08-21T12:40:37;8.90;;;6.20;;
495;SDS011;39559;48.630;9.162;2023-08-21T12:43:04;6.50;;;5.50;;
495;SDS011;39559;48.630;9.162;2023-08-21T12:45:29;7.20;;;6.50;;
495;SDS011;39559;48.630;9.162;2023-08-21T12:47:55;8.30;;;6.33;;
495;SDS011;39559;48.630;9.162;2023-08-21T12:50:21;7.23;;;6.53;;
495;SDS011;39559;48.630;9.162;2023-08-21T12:52:46;7.37;;;6.17;;
495;SDS011;39559;48.630;9.162;2023-08-21T12:55:12;6.50;;;6.00;;
495;SDS011;39559;48.630;9.162;2023-08-21T12:59:36;6.60;;;6.00;;
495;SDS011;39559;48.630;9.162;2023-08-21T13:02:02;7.10;;;6.40;;
495;SDS011;39559;48.630;9.162;2023-08-21T13:04:29;7.20;;;6.60;;
495;SDS011;39559;48.630;9.162;2023-08-21T13:06:55;8.57;;;6.60;;
495;SDS011;39559;48.630;9.162;2023-08-21T13:09:21;6.67;;;6.07;;
495;SDS011;39559;48.630;9.162;2023-08-21T13:11:50;7.83;;;6.80;;
495;SDS011;39559;48.630;9.162;2023-08-21T13:14:16;7.10;;;6.40;;
495;SDS011;39559;48.630;9.162;2023-08-21T13:16:41;7.47;;;6.87;;
495;SDS011;39559;48.630;9.162;2023-08-21T13:19:07;7.43;;;6.70;;
495;SDS011;39559;48.630;9.162;2023-08-21T13:23:28;6.27;;;5.67;;
495;SDS011;39559;48.630;9.162;2023-08-21T13:25:55;6.77;;;6.17;;
495;SDS011;39559;48.630;9.162;2023-08-21T13:28:22;7.83;;;7.03;;
495;SDS011;39559;48.630;9.162;2023-08-21T13:30:48;7.50;;;6.00;;
495;SDS011;39559;48.630;9.162;2023-08-21T13:33:16;6.80;;;6.20;;
495;SDS011;39559;48.630;9.162;2023-08-21T13:35:44;6.23;;;5.60;;
495;SDS011;39559;48.630;9.162;2023-08-21T13:38:10;6.80;;;6.20;;
495;SDS011;39559;48.630;9.162;2023-08-21T13:40:37;7.00;;;6.30;;
495;SDS011;39559;48.630;9.162;2023-08-21T13:43:03;7.67;;;6.93;;
495;SDS011;39559;48.630;9.162;2023-08-21T13:47:20;7.37;;;6.03;;
495;SDS011;39559;48.630;9.162;2023-08-21T13:49:46;7.27;;;6.50;;
495;SDS011;39559;48.630;9.162;2023-08-21T13:52:11;17.03;;;7.17;;
495;SDS011;39559;48.630;9.162;2023-08-21T13:54:37;8.07;;;7.13;;
495;SDS011;39559;48.630;9.162;2023-08-21T13:57:03;6.77;;;5.70;;
495;SDS011;39559;48.630;9.162;2023-08-21T13:59:28;8.33;;;6.50;;
495;SDS011;39559;48.630;9.162;2023-08-21T14:01:54;7.83;;;7.03;;
495;SDS011;39559;48.630;9.162;2023-08-21T14:04:19;20.30;;;6.50;;
495;SDS011;39559;48.630;9.162;2023-08-21T14:06:45;7.00;;;6.27;;
495;SDS011;39559;48.630;9.162;2023-08-21T14:11:12;8.07;;;6.10;;
495;SDS011;39559;48.630;9.162;2023-08-21T14:13:38;6.00;;;5.30;;
495;SDS011;39559;48.630;9.162;2023-08-21T14:16:04;6.97;;;6.33;;
495;SDS011;39559;48.630;9.162;2023-08-21T14:18:29;7.77;;;5.70;;
495;SDS011;39559;48.630;9.162;2023-08-21T14:20:55;6.97;;;6.27;;
495;SDS011;39559;48.630;9.162;2023-08-21T14:23:21;7.00;;;6.30;;
495;SDS011;39559;48.630;9.162;2023-08-21T14:25:46;8.37;;;6.73;;
495;SDS011;39559;48.630;9.162;2023-08-21T14:28:12;6.57;;;5.97;;
495;SDS011;39559;48.630;9.162;2023-08-21T14:30:38;6.90;;;6.30;;
495;SDS011;39559;48.630;9.162;2023-08-21T14:35:05;6.90;;;6.30;;
495;SDS011;39559;48.630;9.162;2023-08-21T14:37:33;9.40;;;6.33;;
495;SDS011;39559;48.630;9.162;2023-08-21T14:39:59;11.53;;;6.53;;
495;SDS011;39559;48.630;9.162;2023-08-21T14:42:24;6.63;;;6.00;;
495;SDS011;39559;48.630;9.162;2023-08-21T14:44:50;6.53;;;5.93;;
495;SDS011;39559;48.630;9.162;2023-08-21T14:47:15;7.47;;;6.40;;
495;SDS011;39559;48.630;9.162;2023-08-21T14:49:41;10.40;;;6.73;;
495;SDS011;39559;48.630;9.162;2023-08-21T14:52:07;7.53;;;6.83;;
495;SDS011;39559;48.630;9.162;2023-08-21T14:54:35;7.20;;;6.37;;
495;SDS011;39559;48.630;9.162;2023-08-21T14:58:56;7.07;;;6.37;;
495;SDS011;39559;48.630;9.162;2023-08-21T15:01:22;7.50;;;6.80;;
495;SDS011;39559;48.630;9.162;2023-08-21T15:03:47;6.70;;;6.00;;
495;SDS011;39559;48.630;9.162;2023-08-21T15:06:13;6.67;;;6.10;;
495;SDS011;39559;48.630;9.162;2023-08-21T15:08:41;7.23;;;6.50;;
495;SDS011;39559;48.630;9.162;2023-08-21T15:11:07;6.80;;;6.10;;
495;SDS011;39559;48.630;9.162;2023-08-21T15:13:42;7.00;;;5.60;;
495;SDS011;39559;48.630;9.162;2023-08-21T15:16:07;6.17;;;5.67;;
495;SDS011;39559;48.630;9.162;2023-08-21T15:18:33;7.90;;;6.30;;
495;SDS011;39559;48.630;9.162;2023-08-21T15:22:48;9.90;;;6.80;;
495;SDS011;39559;48.630;9.162;2023-08-21T15:25:16;6.37;;;5.73;;
495;SDS011;39559;48.630;9.162;2023-08-21T15:27:41;7.07;;;5.23;;
495;SDS011;39559;48.630;9.162;2023-08-21T15:30:07;7.73;;;6.30;;
495;SDS011;39559;48.630;9.162;2023-08-21T15:32:34;7.10;;;6.17;;
495;SDS011;39559;48.630;9.162;2023-08-21T15:35:00;10.90;;;6.27;;
495;SDS011;39559;48.630;9.162;2023-08-21T15:37:30;6.13;;;5.53;;
495;SDS011;39559;48.630;9.162;2023-08-21T15:39:58;6.60;;;5.67;;
495;SDS011;39559;48.630;9.162;2023-08-21T15:42:28;10.17;;;6.17;;
495;SDS011;39559;48.630;9.162;2023-08-21T15:46:40;7.50;;;6.23;;
495;SDS011;39559;48.630;9.162;2023-08-21T15:49:11;9.07;;;6.50;;
495;SDS011;39559;48.630;9.162;2023-08-21T15:51:37;7.37;;;6.57;;
495;SDS011;39559;48.630;9.162;2023-08-21T15:54:03;6.33;;;5.77;;
495;SDS011;39559;48.630;9.162;2023-08-21T15:56:29;5.90;;;5.40;;
495;SDS011;39559;48.630;9.162;2023-08-21T15:58:54;7.23;;;6.50;;
495;SDS011;39559;48.630;9.162;2023-08-21T16:01:20;7.53;;;6.80;;
495;SDS011;39559;48.630;9.162;2023-08-21T16:03:46;6.97;;;6.37;;
495;SDS011;39559;48.630;9.162;2023-08-21T16:06:11;7.80;;;6.17;;
495;SDS011;39559;48.630;9.162;2023-08-21T16:10:31;6.10;;;5.50;;
495;SDS011;39559;48.630;9.162;2023-08-21T16:12:56;8.77;;;5.70;;
495;SDS011;39559;48.630;9.162;2023-08-21T16:15:22;6.83;;;6.20;;
495;SDS011;39559;48.630;9.162;2023-08-21T16:17:48;8.53;;;6.23;;
495;SDS011;39559;48.630;9.162;2023-08-21T16:20:14;7.53;;;6.30;;
495;SDS011;39559;48.630;9.162;2023-08-21T16:22:40;7.60;;;6.37;;
495;SDS011;39559;48.630;9.162;2023-08-21T16:25:06;6.67;;;6.00;;
495;SDS011;39559;48.630;9.162;2023-08-21T16:27:32;5.73;;;5.20;;
495;SDS011;39559;48.630;9.162;2023-08-21T16:29:58;6.63;;;6.03;;